sensor_id;sensor_type;location;lat;lon;timestamp;P1;durP1;ratioP1;P2;durP2;ratioP2
17079;SDS011;8655;57.106;-2.088;2022-10-16T00:00:42;2.40;;;1.00;;
17079;SDS011;8655;57.106;-2.088;2022-10-16T00:03:09;2.20;;;0.97;;
17079;SDS011;8655;57.106;-2.088;2022-10-16T00:05:42;3.23;;;1.20;;
17079;SDS011;8655;57.106;-2.088;2022-10-16T00:08:09;2.37;;;1.10;;
17079;SDS011;8655;57.106;-2.088;2022-10-16T00:10:38;1.83;;;1.00;;
17079;SDS011;8655;57.106;-2.088;2022-10-16T00:13:04;1.70;;;0.87;;
17079;SDS011;8655;57.106;-2.088;2022-10-16T00:15:32;2.70;;;1.13;;
17079;SDS011;8655;57.106;-2.088;2022-10-16T00:18:01;1.40;;;0.73;;
17079;SDS011;8655;57.106;-2.088;2022-10-16T00:20:27;1.33;;;0.70;;
17079;SDS011;8655;57.106;-2.088;2022-10-16T00:22:52;2.73;;;1.10;;
17079;SDS011;8655;57.106;-2.088;2022-10-16T00:25:18;1.57;;;0.90;;
17079;SDS011;8655;57.106;-2.088;2022-10-16T00:27:44;2.00;;;1.00;;
17079;SDS011;8655;57.106;-2.088;2022-10-16T00:30:10;1.47;;;0.73;;
17079;SDS011;8655;57.106;-2.088;2022-10-16T00:32:36;3.13;;;1.10;;
17079;SDS011;8655;57.106;-2.088;2022-10-16T00:35:01;1.90;;;0.93;;
17079;SDS011;8655;57.106;-2.088;2022-10-16T00:37:28;2.27;;;1.03;;
17079;SDS011;8655;57.106;-2.088;2022-10-16T00:39:54;0.93;;;0.60;;
17079;SDS011;8655;57.106;-2.088;2022-10-16T00:42:20;1.30;;;0.63;;
17079;SDS011;8655;57.106;-2.088;2022-10-16T00:47:39;4.03;;;1.03;;
17079;SDS011;8655;57.106;-2.088;2022-10-16T00:50:21;1.87;;;1.10;;
17079;SDS011;8655;57.106;-2.088;2022-10-16T00:52:55;2.07;;;0.90;;
17079;SDS011;8655;57.106;-2.088;2022-10-16T00:55:22;2.67;;;0.87;;
17079;SDS011;8655;57.106;-2.088;2022-10-16T00:57:48;1.57;;;0.77;;
17079;SDS011;8655;57.106;-2.088;2022-10-16T01:00:17;2.17;;;1.13;;
17079;SDS011;8655;57.106;-2.088;2022-10-16T01:02:44;1.70;;;0.80;;
17079;SDS011;8655;57.106;-2.088;2022-10-16T01:05:16;1.10;;;0.70;;
17079;SDS011;8655;57.106;-2.088;2022-10-16T01:07:49;1.80;;;0.70;;
17079;SDS011;8655;57.106;-2.088;2022-10-16T01:10:39;1.63;;;0.80;;
17079;SDS011;8655;57.106;-2.088;2022-10-16T01:13:18;1.33;;;0.80;;
17079;SDS011;8655;57.106;-2.088;2022-10-16T01:18:54;1.00;;;0.73;;
17079;SDS011;8655;57.106;-2.088;2022-10-16T01:21:43;0.87;;;0.77;;
17079;SDS011;8655;57.106;-2.088;2022-10-16T01:24:17;0.93;;;0.60;;
17079;SDS011;8655;57.106;-2.088;2022-10-16T01:35:43;1.87;;;0.80;;
17079;SDS011;8655;57.106;-2.088;2022-10-16T01:38:19;1.93;;;0.93;;
17079;SDS011;8655;57.106;-2.088;2022-10-16T01:40:49;1.77;;;0.90;;
17079;SDS011;8655;57.106;-2.088;2022-10-16T01:43:19;1.50;;;0.90;;
17079;SDS011;8655;57.106;-2.088;2022-10-16T01:45:49;1.20;;;0.60;;
17079;SDS011;8655;57.106;-2.088;2022-10-16T01:48:16;1.30;;;0.77;;
17079;SDS011;8655;57.106;-2.088;2022-10-16T01:50:44;0.67;;;0.60;;
17079;SDS011;8655;57.106;-2.088;2022-10-16T01:53:13;2.00;;;0.90;;
17079;SDS011;8655;57.106;-2.088;2022-10-16T01:55:42;1.20;;;0.70;;
17079;SDS011;8655;57.106;-2.088;2022-10-16T01:58:11;1.03;;;0.70;;
17079;SDS011;8655;57.106;-2.088;2022-10-16T02:00:39;2.63;;;1.00;;
17079;SDS011;8655;57.106;-2.088;2022-10-16T02:03:08;0.80;;;0.60;;
17079;SDS011;8655;57.106;-2.088;2022-10-16T02:05:39;1.17;;;0.60;;
17079;SDS011;8655;57.106;-2.088;2022-10-16T02:08:17;0.73;;;0.53;;
17079;SDS011;8655;57.106;-2.088;2022-10-16T02:10:43;1.23;;;0.90;;
17079;SDS011;8655;57.106;-2.088;2022-10-16T02:13:14;0.87;;;0.70;;
17079;SDS011;8655;57.106;-2.088;2022-10-16T02:15:41;0.83;;;0.63;;
17079;SDS011;8655;57.106;-2.088;2022-10-16T02:18:07;1.37;;;0.80;;
17079;SDS011;8655;57.106;-2.088;2022-10-16T02:20:37;0.93;;;0.50;;
17079;SDS011;8655;57.106;-2.088;2022-10-16T02:23:12;1.80;;;0.70;;
17079;SDS011;8655;57.106;-2.088;2022-10-16T02:25:43;1.13;;;0.70;;
17079;SDS011;8655;57.106;-2.088;2022-10-16T02:28:16;1.37;;;0.93;;
17079;SDS011;8655;57.106;-2.088;2022-10-16T02:30:46;1.40;;;0.80;;
17079;SDS011;8655;57.106;-2.088;2022-10-16T02:33:21;1.53;;;0.73;;
17079;SDS011;8655;57.106;-2.088;2022-10-16T02:35:48;1.50;;;0.80;;
17079;SDS011;8655;57.106;-2.088;2022-10-16T02:38:16;1.37;;;0.80;;
17079;SDS011;8655;57.106;-2.088;2022-10-16T02:40:43;1.10;;;0.60;;
17079;SDS011;8655;57.106;-2.088;2022-10-16T02:43:09;0.60;;;0.57;;
17079;SDS011;8655;57.106;-2.088;2022-10-16T02:45:35;1.00;;;0.50;;
17079;SDS011;8655;57.106;-2.088;2022-10-16T02:48:01;0.90;;;0.67;;
17079;SDS011;8655;57.106;-2.088;2022-10-16T02:50:27;1.17;;;0.70;;
17079;SDS011;8655;57.106;-2.088;2022-10-16T02:52:53;1.10;;;0.60;;
17079;SDS011;8655;57.106;-2.088;2022-10-16T02:58:07;0.93;;;0.70;;
17079;SDS011;8655;57.106;-2.088;2022-10-16T03:00:33;1.00;;;0.60;;
17079;SDS011;8655;57.106;-2.088;2022-10-16T03:02:58;0.90;;;0.70;;
17079;SDS011;8655;57.106;-2.088;2022-10-16T03:05:24;1.10;;;0.80;;
17079;SDS011;8655;57.106;-2.088;2022-10-16T03:07:50;1.40;;;0.67;;
17079;SDS011;8655;57.106;-2.088;2022-10-16T03:10:17;0.40;;;0.40;;
17079;SDS011;8655;57.106;-2.088;2022-10-16T03:12:43;0.50;;;0.50;;
17079;SDS011;8655;57.106;-2.088;2022-10-16T03:15:09;1.00;;;0.77;;
17079;SDS011;8655;57.106;-2.088;2022-10-16T03:17:35;0.50;;;0.50;;
17079;SDS011;8655;57.106;-2.088;2022-10-16T03:20:00;0.97;;;0.87;;
17079;SDS011;8655;57.106;-2.088;2022-10-16T03:22:26;1.00;;;0.60;;
17079;SDS011;8655;57.106;-2.088;2022-10-16T03:24:52;0.80;;;0.60;;
17079;SDS011;8655;57.106;-2.088;2022-10-16T03:27:18;0.50;;;0.40;;
17079;SDS011;8655;57.106;-2.088;2022-10-16T03:29:43;1.00;;;0.70;;
17079;SDS011;8655;57.106;-2.088;2022-10-16T03:32:09;0.67;;;0.60;;
17079;SDS011;8655;57.106;-2.088;2022-10-16T03:34:35;1.40;;;0.70;;
17079;SDS011;8655;57.106;-2.088;2022-10-16T03:37:00;0.50;;;0.50;;
17079;SDS011;8655;57.106;-2.088;2022-10-16T03:39:26;0.50;;;0.47;;
17079;SDS011;8655;57.106;-2.088;2022-10-16T03:41:52;1.17;;;0.50;;
17079;SDS011;8655;57.106;-2.088;2022-10-16T03:44:17;0.70;;;0.60;;
17079;SDS011;8655;57.106;-2.088;2022-10-16T03:46:43;0.50;;;0.50;;
17079;SDS011;8655;57.106;-2.088;2022-10-16T03:49:09;0.67;;;0.50;;
17079;SDS011;8655;57.106;-2.088;2022-10-16T03:51:34;1.30;;;0.70;;
17079;SDS011;8655;57.106;-2.088;2022-10-16T03:54:00;0.47;;;0.47;;
17079;SDS011;8655;57.106;-2.088;2022-10-16T03:56:26;1.60;;;0.53;;
17079;SDS011;8655;57.106;-2.088;2022-10-16T03:58:52;0.83;;;0.50;;
17079;SDS011;8655;57.106;-2.088;2022-10-16T04:01:17;0.63;;;0.50;;
17079;SDS011;8655;57.106;-2.088;2022-10-16T04:03:43;0.70;;;0.57;;
17079;SDS011;8655;57.106;-2.088;2022-10-16T04:06:08;0.57;;;0.50;;
17079;SDS011;8655;57.106;-2.088;2022-10-16T04:08:34;0.60;;;0.50;;
17079;SDS011;8655;57.106;-2.088;2022-10-16T04:11:01;0.50;;;0.50;;
17079;SDS011;8655;57.106;-2.088;2022-10-16T04:13:27;0.60;;;0.50;;
17079;SDS011;8655;57.106;-2.088;2022-10-16T04:15:53;0.67;;;0.53;;
17079;SDS011;8655;57.106;-2.088;2022-10-16T04:18:19;1.03;;;0.50;;
17079;SDS011;8655;57.106;-2.088;2022-10-16T04:20:44;0.53;;;0.37;;
17079;SDS011;8655;57.106;-2.088;2022-10-16T04:23:10;0.73;;;0.50;;
17079;SDS011;8655;57.106;-2.088;2022-10-16T04:25:36;0.37;;;0.37;;
17079;SDS011;8655;57.106;-2.088;2022-10-16T04:28:02;0.70;;;0.40;;
17079;SDS011;8655;57.106;-2.088;2022-10-16T04:30:28;0.50;;;0.50;;
17079;SDS011;8655;57.106;-2.088;2022-10-16T04:32:54;0.60;;;0.60;;
17079;SDS011;8655;57.106;-2.088;2022-10-16T04:35:20;1.07;;;0.50;;
17079;SDS011;8655;57.106;-2.088;2022-10-16T04:37:46;0.43;;;0.40;;
17079;SDS011;8655;57.106;-2.088;2022-10-16T04:40:12;0.57;;;0.43;;
17079;SDS011;8655;57.106;-2.088;2022-10-16T04:42:38;0.40;;;0.40;;
17079;SDS011;8655;57.106;-2.088;2022-10-16T04:45:05;0.90;;;0.67;;
17079;SDS011;8655;57.106;-2.088;2022-10-16T04:47:32;0.67;;;0.50;;
17079;SDS011;8655;57.106;-2.088;2022-10-16T04:49:58;1.03;;;0.40;;
17079;SDS011;8655;57.106;-2.088;2022-10-16T04:52:26;0.40;;;0.40;;
17079;SDS011;8655;57.106;-2.088;2022-10-16T04:54:52;0.50;;;0.50;;
17079;SDS011;8655;57.106;-2.088;2022-10-16T04:57:18;0.53;;;0.53;;
17079;SDS011;8655;57.106;-2.088;2022-10-16T04:59:44;0.50;;;0.50;;
17079;SDS011;8655;57.106;-2.088;2022-10-16T05:02:10;0.57;;;0.30;;
17079;SDS011;8655;57.106;-2.088;2022-10-16T05:04:35;0.47;;;0.47;;
17079;SDS011;8655;57.106;-2.088;2022-10-16T05:07:01;0.30;;;0.30;;
17079;SDS011;8655;57.106;-2.088;2022-10-16T05:09:27;0.40;;;0.40;;
17079;SDS011;8655;57.106;-2.088;2022-10-16T05:11:52;1.07;;;0.50;;
17079;SDS011;8655;57.106;-2.088;2022-10-16T05:14:18;0.60;;;0.50;;
17079;SDS011;8655;57.106;-2.088;2022-10-16T05:16:44;0.63;;;0.43;;
17079;SDS011;8655;57.106;-2.088;2022-10-16T05:19:09;0.60;;;0.40;;
17079;SDS011;8655;57.106;-2.088;2022-10-16T05:21:35;1.37;;;0.60;;
17079;SDS011;8655;57.106;-2.088;2022-10-16T05:24:01;0.83;;;0.50;;
17079;SDS011;8655;57.106;-2.088;2022-10-16T05:26:27;0.63;;;0.50;;
17079;SDS011;8655;57.106;-2.088;2022-10-16T05:28:52;0.73;;;0.40;;
17079;SDS011;8655;57.106;-2.088;2022-10-16T05:31:18;0.63;;;0.50;;
17079;SDS011;8655;57.106;-2.088;2022-10-16T05:33:44;0.40;;;0.40;;
17079;SDS011;8655;57.106;-2.088;2022-10-16T05:36:10;0.30;;;0.30;;
17079;SDS011;8655;57.106;-2.088;2022-10-16T05:38:36;0.40;;;0.40;;
17079;SDS011;8655;57.106;-2.088;2022-10-16T05:41:03;0.47;;;0.40;;
17079;SDS011;8655;57.106;-2.088;2022-10-16T05:43:30;0.50;;;0.50;;
17079;SDS011;8655;57.106;-2.088;2022-10-16T05:46:05;0.37;;;0.37;;
17079;SDS011;8655;57.106;-2.088;2022-10-16T05:48:31;0.50;;;0.50;;
17079;SDS011;8655;57.106;-2.088;2022-10-16T05:50:58;0.40;;;0.40;;
17079;SDS011;8655;57.106;-2.088;2022-10-16T05:53:26;0.43;;;0.43;;
17079;SDS011;8655;57.106;-2.088;2022-10-16T05:55:53;0.50;;;0.50;;
17079;SDS011;8655;57.106;-2.088;2022-10-16T05:58:20;0.73;;;0.63;;
17079;SDS011;8655;57.106;-2.088;2022-10-16T06:00:53;0.30;;;0.30;;
17079;SDS011;8655;57.106;-2.088;2022-10-16T06:03:19;0.30;;;0.23;;
17079;SDS011;8655;57.106;-2.088;2022-10-16T06:05:45;0.30;;;0.30;;
17079;SDS011;8655;57.106;-2.088;2022-10-16T06:08:10;0.30;;;0.27;;
17079;SDS011;8655;57.106;-2.088;2022-10-16T06:10:36;0.30;;;0.30;;
17079;SDS011;8655;57.106;-2.088;2022-10-16T06:13:02;0.60;;;0.50;;
17079;SDS011;8655;57.106;-2.088;2022-10-16T06:15:27;0.50;;;0.40;;
17079;SDS011;8655;57.106;-2.088;2022-10-16T06:17:54;0.70;;;0.47;;
17079;SDS011;8655;57.106;-2.088;2022-10-16T06:20:19;0.30;;;0.30;;
17079;SDS011;8655;57.106;-2.088;2022-10-16T06:22:45;0.70;;;0.37;;
17079;SDS011;8655;57.106;-2.088;2022-10-16T06:25:10;0.60;;;0.40;;
17079;SDS011;8655;57.106;-2.088;2022-10-16T06:27:39;0.23;;;0.23;;
17079;SDS011;8655;57.106;-2.088;2022-10-16T06:30:05;0.30;;;0.20;;
17079;SDS011;8655;57.106;-2.088;2022-10-16T06:32:32;0.30;;;0.30;;
17079;SDS011;8655;57.106;-2.088;2022-10-16T06:34:57;0.83;;;0.30;;
17079;SDS011;8655;57.106;-2.088;2022-10-16T06:37:23;0.30;;;0.30;;
17079;SDS011;8655;57.106;-2.088;2022-10-16T06:39:49;0.63;;;0.40;;
17079;SDS011;8655;57.106;-2.088;2022-10-16T06:42:17;0.50;;;0.40;;
17079;SDS011;8655;57.106;-2.088;2022-10-16T06:44:43;0.30;;;0.30;;
17079;SDS011;8655;57.106;-2.088;2022-10-16T06:47:09;0.23;;;0.23;;
17079;SDS011;8655;57.106;-2.088;2022-10-16T06:49:35;0.30;;;0.30;;
17079;SDS011;8655;57.106;-2.088;2022-10-16T06:52:00;0.40;;;0.40;;
17079;SDS011;8655;57.106;-2.088;2022-10-16T06:54:26;0.43;;;0.40;;
17079;SDS011;8655;57.106;-2.088;2022-10-16T06:56:53;0.50;;;0.50;;
17079;SDS011;8655;57.106;-2.088;2022-10-16T06:59:19;0.30;;;0.30;;
17079;SDS011;8655;57.106;-2.088;2022-10-16T07:01:46;0.20;;;0.20;;
17079;SDS011;8655;57.106;-2.088;2022-10-16T07:04:12;0.77;;;0.30;;
17079;SDS011;8655;57.106;-2.088;2022-10-16T07:06:38;0.30;;;0.30;;
17079;SDS011;8655;57.106;-2.088;2022-10-16T07:09:05;0.30;;;0.30;;
17079;SDS011;8655;57.106;-2.088;2022-10-16T07:11:34;0.40;;;0.30;;
17079;SDS011;8655;57.106;-2.088;2022-10-16T07:14:00;0.37;;;0.37;;
17079;SDS011;8655;57.106;-2.088;2022-10-16T07:16:27;1.63;;;0.40;;
17079;SDS011;8655;57.106;-2.088;2022-10-16T07:18:55;0.50;;;0.40;;
17079;SDS011;8655;57.106;-2.088;2022-10-16T07:21:29;0.30;;;0.30;;
17079;SDS011;8655;57.106;-2.088;2022-10-16T07:24:02;0.30;;;0.30;;
17079;SDS011;8655;57.106;-2.088;2022-10-16T07:26:31;0.30;;;0.30;;
17079;SDS011;8655;57.106;-2.088;2022-10-16T07:28:59;0.37;;;0.20;;
17079;SDS011;8655;57.106;-2.088;2022-10-16T07:31:25;0.40;;;0.30;;
17079;SDS011;8655;57.106;-2.088;2022-10-16T07:33:51;0.20;;;0.20;;
17079;SDS011;8655;57.106;-2.088;2022-10-16T07:36:18;0.30;;;0.30;;
17079;SDS011;8655;57.106;-2.088;2022-10-16T07:38:45;0.20;;;0.20;;
17079;SDS011;8655;57.106;-2.088;2022-10-16T07:41:12;0.30;;;0.30;;
17079;SDS011;8655;57.106;-2.088;2022-10-16T07:43:47;0.50;;;0.30;;
17079;SDS011;8655;57.106;-2.088;2022-10-16T07:46:13;0.37;;;0.37;;
17079;SDS011;8655;57.106;-2.088;2022-10-16T07:48:40;0.23;;;0.23;;
17079;SDS011;8655;57.106;-2.088;2022-10-16T07:51:06;0.30;;;0.30;;
17079;SDS011;8655;57.106;-2.088;2022-10-16T07:53:33;0.30;;;0.30;;
17079;SDS011;8655;57.106;-2.088;2022-10-16T07:55:59;0.20;;;0.20;;
17079;SDS011;8655;57.106;-2.088;2022-10-16T07:58:27;0.33;;;0.33;;
17079;SDS011;8655;57.106;-2.088;2022-10-16T08:00:53;0.53;;;0.40;;
17079;SDS011;8655;57.106;-2.088;2022-10-16T08:03:19;0.20;;;0.20;;
17079;SDS011;8655;57.106;-2.088;2022-10-16T08:05:44;0.20;;;0.20;;
17079;SDS011;8655;57.106;-2.088;2022-10-16T08:08:13;0.30;;;0.30;;
17079;SDS011;8655;57.106;-2.088;2022-10-16T08:10:40;0.30;;;0.30;;
17079;SDS011;8655;57.106;-2.088;2022-10-16T08:13:06;0.20;;;0.20;;
17079;SDS011;8655;57.106;-2.088;2022-10-16T08:15:33;0.20;;;0.20;;
17079;SDS011;8655;57.106;-2.088;2022-10-16T08:18:02;0.30;;;0.30;;
17079;SDS011;8655;57.106;-2.088;2022-10-16T08:20:30;0.30;;;0.30;;
17079;SDS011;8655;57.106;-2.088;2022-10-16T08:22:59;1.03;;;0.30;;
17079;SDS011;8655;57.106;-2.088;2022-10-16T08:25:25;0.37;;;0.37;;
17079;SDS011;8655;57.106;-2.088;2022-10-16T08:27:51;0.23;;;0.23;;
17079;SDS011;8655;57.106;-2.088;2022-10-16T08:30:18;0.37;;;0.30;;
17079;SDS011;8655;57.106;-2.088;2022-10-16T08:32:45;0.33;;;0.33;;
17079;SDS011;8655;57.106;-2.088;2022-10-16T08:35:11;0.50;;;0.40;;
17079;SDS011;8655;57.106;-2.088;2022-10-16T08:37:37;0.30;;;0.30;;
17079;SDS011;8655;57.106;-2.088;2022-10-16T08:40:05;0.40;;;0.40;;
17079;SDS011;8655;57.106;-2.088;2022-10-16T08:47:52;0.20;;;0.20;;
17079;SDS011;8655;57.106;-2.088;2022-10-16T08:50:38;0.30;;;0.30;;
17079;SDS011;8655;57.106;-2.088;2022-10-16T08:53:05;0.27;;;0.27;;
17079;SDS011;8655;57.106;-2.088;2022-10-16T08:58:14;0.30;;;0.30;;
17079;SDS011;8655;57.106;-2.088;2022-10-16T09:00:54;0.37;;;0.37;;
17079;SDS011;8655;57.106;-2.088;2022-10-16T09:13:55;0.37;;;0.37;;
17079;SDS011;8655;57.106;-2.088;2022-10-16T09:16:35;0.30;;;0.30;;
17079;SDS011;8655;57.106;-2.088;2022-10-16T09:19:13;0.20;;;0.20;;
17079;SDS011;8655;57.106;-2.088;2022-10-16T09:21:45;0.67;;;0.30;;
17079;SDS011;8655;57.106;-2.088;2022-10-16T09:26:39;0.30;;;0.30;;
17079;SDS011;8655;57.106;-2.088;2022-10-16T09:29:05;0.40;;;0.40;;
17079;SDS011;8655;57.106;-2.088;2022-10-16T09:31:31;0.20;;;0.20;;
17079;SDS011;8655;57.106;-2.088;2022-10-16T09:33:59;0.33;;;0.33;;
17079;SDS011;8655;57.106;-2.088;2022-10-16T09:36:35;0.37;;;0.37;;
17079;SDS011;8655;57.106;-2.088;2022-10-16T09:39:07;0.20;;;0.20;;
17079;SDS011;8655;57.106;-2.088;2022-10-16T09:41:37;0.33;;;0.30;;
17079;SDS011;8655;57.106;-2.088;2022-10-16T09:44:15;0.20;;;0.20;;
17079;SDS011;8655;57.106;-2.088;2022-10-16T09:47:01;0.20;;;0.20;;
17079;SDS011;8655;57.106;-2.088;2022-10-16T09:49:27;0.30;;;0.30;;
17079;SDS011;8655;57.106;-2.088;2022-10-16T09:52:05;0.20;;;0.20;;
17079;SDS011;8655;57.106;-2.088;2022-10-16T09:54:36;0.27;;;0.27;;
17079;SDS011;8655;57.106;-2.088;2022-10-16T09:57:06;0.20;;;0.20;;
17079;SDS011;8655;57.106;-2.088;2022-10-16T09:59:32;0.30;;;0.30;;
17079;SDS011;8655;57.106;-2.088;2022-10-16T10:02:02;0.30;;;0.23;;
17079;SDS011;8655;57.106;-2.088;2022-10-16T10:04:40;0.30;;;0.30;;
17079;SDS011;8655;57.106;-2.088;2022-10-16T10:07:16;0.20;;;0.20;;
17079;SDS011;8655;57.106;-2.088;2022-10-16T10:09:44;0.20;;;0.20;;
17079;SDS011;8655;57.106;-2.088;2022-10-16T10:12:18;0.30;;;0.30;;
17079;SDS011;8655;57.106;-2.088;2022-10-16T10:14:53;0.33;;;0.27;;
17079;SDS011;8655;57.106;-2.088;2022-10-16T10:17:26;0.20;;;0.20;;
17079;SDS011;8655;57.106;-2.088;2022-10-16T10:44:01;0.20;;;0.20;;
17079;SDS011;8655;57.106;-2.088;2022-10-16T10:51:51;0.33;;;0.30;;
17079;SDS011;8655;57.106;-2.088;2022-10-16T10:54:40;0.20;;;0.20;;
17079;SDS011;8655;57.106;-2.088;2022-10-16T10:57:22;0.30;;;0.30;;
17079;SDS011;8655;57.106;-2.088;2022-10-16T11:05:35;0.20;;;0.20;;
17079;SDS011;8655;57.106;-2.088;2022-10-16T11:10:44;0.20;;;0.20;;
17079;SDS011;8655;57.106;-2.088;2022-10-16T11:15:48;0.20;;;0.20;;
17079;SDS011;8655;57.106;-2.088;2022-10-16T11:18:20;0.30;;;0.30;;
17079;SDS011;8655;57.106;-2.088;2022-10-16T11:20:57;0.20;;;0.20;;
17079;SDS011;8655;57.106;-2.088;2022-10-16T11:23:35;0.30;;;0.20;;
17079;SDS011;8655;57.106;-2.088;2022-10-16T11:26:41;0.20;;;0.20;;
17079;SDS011;8655;57.106;-2.088;2022-10-16T11:29:20;0.20;;;0.20;;
17079;SDS011;8655;57.106;-2.088;2022-10-16T11:31:53;0.20;;;0.20;;
17079;SDS011;8655;57.106;-2.088;2022-10-16T11:36:58;0.30;;;0.30;;
17079;SDS011;8655;57.106;-2.088;2022-10-16T11:39:34;0.20;;;0.20;;
17079;SDS011;8655;57.106;-2.088;2022-10-16T11:44:56;0.20;;;0.20;;
17079;SDS011;8655;57.106;-2.088;2022-10-16T11:50:24;0.20;;;0.20;;
17079;SDS011;8655;57.106;-2.088;2022-10-16T11:53:23;0.20;;;0.20;;
17079;SDS011;8655;57.106;-2.088;2022-10-16T11:56:04;0.30;;;0.30;;
17079;SDS011;8655;57.106;-2.088;2022-10-16T12:01:22;0.20;;;0.20;;
17079;SDS011;8655;57.106;-2.088;2022-10-16T12:06:50;0.17;;;0.17;;
17079;SDS011;8655;57.106;-2.088;2022-10-16T12:09:27;0.20;;;0.20;;
17079;SDS011;8655;57.106;-2.088;2022-10-16T12:11:55;0.30;;;0.30;;
17079;SDS011;8655;57.106;-2.088;2022-10-16T12:14:34;0.20;;;0.20;;
17079;SDS011;8655;57.106;-2.088;2022-10-16T12:17:03;0.30;;;0.30;;
17079;SDS011;8655;57.106;-2.088;2022-10-16T12:19:59;0.40;;;0.40;;
17079;SDS011;8655;57.106;-2.088;2022-10-16T12:22:59;0.30;;;0.30;;
17079;SDS011;8655;57.106;-2.088;2022-10-16T12:25:36;0.10;;;0.10;;
17079;SDS011;8655;57.106;-2.088;2022-10-16T12:30:40;0.30;;;0.30;;
17079;SDS011;8655;57.106;-2.088;2022-10-16T12:36:12;0.40;;;0.30;;
17079;SDS011;8655;57.106;-2.088;2022-10-16T12:38:48;0.20;;;0.20;;
17079;SDS011;8655;57.106;-2.088;2022-10-16T12:41:29;0.13;;;0.13;;
17079;SDS011;8655;57.106;-2.088;2022-10-16T12:43:56;0.10;;;0.10;;
17079;SDS011;8655;57.106;-2.088;2022-10-16T12:46:26;0.30;;;0.20;;
17079;SDS011;8655;57.106;-2.088;2022-10-16T12:51:41;0.57;;;0.27;;
17079;SDS011;8655;57.106;-2.088;2022-10-16T12:54:18;0.30;;;0.30;;
17079;SDS011;8655;57.106;-2.088;2022-10-16T12:57:26;0.20;;;0.20;;
17079;SDS011;8655;57.106;-2.088;2022-10-16T13:05:16;0.20;;;0.20;;
17079;SDS011;8655;57.106;-2.088;2022-10-16T13:10:26;0.27;;;0.27;;
17079;SDS011;8655;57.106;-2.088;2022-10-16T13:26:10;0.40;;;0.30;;
17079;SDS011;8655;57.106;-2.088;2022-10-16T13:29:02;0.20;;;0.20;;
17079;SDS011;8655;57.106;-2.088;2022-10-16T13:31:28;0.33;;;0.23;;
17079;SDS011;8655;57.106;-2.088;2022-10-16T13:33:56;0.20;;;0.20;;
17079;SDS011;8655;57.106;-2.088;2022-10-16T13:39:36;0.20;;;0.20;;
17079;SDS011;8655;57.106;-2.088;2022-10-16T13:41:38;0.20;;;0.20;;
17079;SDS011;8655;57.106;-2.088;2022-10-16T13:44:04;0.20;;;0.20;;
17079;SDS011;8655;57.106;-2.088;2022-10-16T13:46:36;0.20;;;0.20;;
17079;SDS011;8655;57.106;-2.088;2022-10-16T13:49:10;0.20;;;0.20;;
17079;SDS011;8655;57.106;-2.088;2022-10-16T13:51:38;0.30;;;0.30;;
17079;SDS011;8655;57.106;-2.088;2022-10-16T13:54:04;0.30;;;0.30;;
17079;SDS011;8655;57.106;-2.088;2022-10-16T13:56:31;0.20;;;0.20;;
17079;SDS011;8655;57.106;-2.088;2022-10-16T13:58:58;0.50;;;0.40;;
17079;SDS011;8655;57.106;-2.088;2022-10-16T14:01:33;0.20;;;0.20;;
17079;SDS011;8655;57.106;-2.088;2022-10-16T14:04:08;0.20;;;0.20;;
17079;SDS011;8655;57.106;-2.088;2022-10-16T14:06:36;0.20;;;0.20;;
17079;SDS011;8655;57.106;-2.088;2022-10-16T14:14:43;0.60;;;0.30;;
17079;SDS011;8655;57.106;-2.088;2022-10-16T14:20:12;0.30;;;0.30;;
17079;SDS011;8655;57.106;-2.088;2022-10-16T14:22:41;0.20;;;0.20;;
17079;SDS011;8655;57.106;-2.088;2022-10-16T14:27:46;0.40;;;0.40;;
17079;SDS011;8655;57.106;-2.088;2022-10-16T14:30:58;0.40;;;0.40;;
17079;SDS011;8655;57.106;-2.088;2022-10-16T14:38:28;1.40;;;0.20;;
17079;SDS011;8655;57.106;-2.088;2022-10-16T14:40:54;0.20;;;0.20;;
17079;SDS011;8655;57.106;-2.088;2022-10-16T14:43:44;0.50;;;0.33;;
17079;SDS011;8655;57.106;-2.088;2022-10-16T14:46:15;0.37;;;0.37;;
17079;SDS011;8655;57.106;-2.088;2022-10-16T14:48:43;0.37;;;0.27;;
17079;SDS011;8655;57.106;-2.088;2022-10-16T14:51:17;0.10;;;0.10;;
17079;SDS011;8655;57.106;-2.088;2022-10-16T14:53:44;0.20;;;0.20;;
17079;SDS011;8655;57.106;-2.088;2022-10-16T14:56:14;0.30;;;0.30;;
17079;SDS011;8655;57.106;-2.088;2022-10-16T14:58:43;0.20;;;0.20;;
17079;SDS011;8655;57.106;-2.088;2022-10-16T15:01:09;0.10;;;0.10;;
17079;SDS011;8655;57.106;-2.088;2022-10-16T15:03:36;0.43;;;0.30;;
17079;SDS011;8655;57.106;-2.088;2022-10-16T15:06:02;0.20;;;0.20;;
17079;SDS011;8655;57.106;-2.088;2022-10-16T15:08:28;0.43;;;0.40;;
17079;SDS011;8655;57.106;-2.088;2022-10-16T15:10:54;0.20;;;0.20;;
17079;SDS011;8655;57.106;-2.088;2022-10-16T15:13:20;0.37;;;0.27;;
17079;SDS011;8655;57.106;-2.088;2022-10-16T15:15:46;0.40;;;0.30;;
17079;SDS011;8655;57.106;-2.088;2022-10-16T15:18:14;0.40;;;0.30;;
17079;SDS011;8655;57.106;-2.088;2022-10-16T15:20:45;0.20;;;0.20;;
17079;SDS011;8655;57.106;-2.088;2022-10-16T15:23:13;0.63;;;0.30;;
17079;SDS011;8655;57.106;-2.088;2022-10-16T15:25:41;1.10;;;0.30;;
17079;SDS011;8655;57.106;-2.088;2022-10-16T15:28:09;0.60;;;0.30;;
17079;SDS011;8655;57.106;-2.088;2022-10-16T15:30:36;0.30;;;0.30;;
17079;SDS011;8655;57.106;-2.088;2022-10-16T15:33:03;0.20;;;0.20;;
17079;SDS011;8655;57.106;-2.088;2022-10-16T15:35:30;0.40;;;0.40;;
17079;SDS011;8655;57.106;-2.088;2022-10-16T15:37:56;0.20;;;0.20;;
17079;SDS011;8655;57.106;-2.088;2022-10-16T15:40:22;0.47;;;0.33;;
17079;SDS011;8655;57.106;-2.088;2022-10-16T15:42:48;0.30;;;0.30;;
17079;SDS011;8655;57.106;-2.088;2022-10-16T15:45:14;0.40;;;0.30;;
17079;SDS011;8655;57.106;-2.088;2022-10-16T15:47:41;0.33;;;0.30;;
17079;SDS011;8655;57.106;-2.088;2022-10-16T15:50:08;0.20;;;0.20;;
17079;SDS011;8655;57.106;-2.088;2022-10-16T15:52:36;0.30;;;0.30;;
17079;SDS011;8655;57.106;-2.088;2022-10-16T15:55:01;0.23;;;0.20;;
17079;SDS011;8655;57.106;-2.088;2022-10-16T15:57:28;0.30;;;0.30;;
17079;SDS011;8655;57.106;-2.088;2022-10-16T15:59:54;0.30;;;0.30;;
17079;SDS011;8655;57.106;-2.088;2022-10-16T16:02:20;0.50;;;0.40;;
17079;SDS011;8655;57.106;-2.088;2022-10-16T16:04:45;0.57;;;0.30;;
17079;SDS011;8655;57.106;-2.088;2022-10-16T16:07:11;0.27;;;0.27;;
17079;SDS011;8655;57.106;-2.088;2022-10-16T16:09:37;0.27;;;0.27;;
17079;SDS011;8655;57.106;-2.088;2022-10-16T16:12:03;0.30;;;0.30;;
17079;SDS011;8655;57.106;-2.088;2022-10-16T16:14:28;0.13;;;0.13;;
17079;SDS011;8655;57.106;-2.088;2022-10-16T16:16:54;0.30;;;0.30;;
17079;SDS011;8655;57.106;-2.088;2022-10-16T16:19:21;0.30;;;0.23;;
17079;SDS011;8655;57.106;-2.088;2022-10-16T16:21:47;0.37;;;0.37;;
17079;SDS011;8655;57.106;-2.088;2022-10-16T16:24:13;0.63;;;0.40;;
17079;SDS011;8655;57.106;-2.088;2022-10-16T16:26:39;0.40;;;0.40;;
17079;SDS011;8655;57.106;-2.088;2022-10-16T16:29:09;0.63;;;0.40;;
17079;SDS011;8655;57.106;-2.088;2022-10-16T16:31:38;0.40;;;0.30;;
17079;SDS011;8655;57.106;-2.088;2022-10-16T16:34:04;0.40;;;0.40;;
17079;SDS011;8655;57.106;-2.088;2022-10-16T16:36:31;1.03;;;0.33;;
17079;SDS011;8655;57.106;-2.088;2022-10-16T16:38:57;0.67;;;0.37;;
17079;SDS011;8655;57.106;-2.088;2022-10-16T16:41:24;0.83;;;0.40;;
17079;SDS011;8655;57.106;-2.088;2022-10-16T16:43:52;0.30;;;0.30;;
17079;SDS011;8655;57.106;-2.088;2022-10-16T16:46:18;0.40;;;0.40;;
17079;SDS011;8655;57.106;-2.088;2022-10-16T16:48:45;0.70;;;0.40;;
17079;SDS011;8655;57.106;-2.088;2022-10-16T16:51:12;0.40;;;0.40;;
17079;SDS011;8655;57.106;-2.088;2022-10-16T16:53:45;0.40;;;0.30;;
17079;SDS011;8655;57.106;-2.088;2022-10-16T16:56:12;0.90;;;0.40;;
17079;SDS011;8655;57.106;-2.088;2022-10-16T16:58:38;1.63;;;0.37;;
17079;SDS011;8655;57.106;-2.088;2022-10-16T17:01:04;0.60;;;0.40;;
17079;SDS011;8655;57.106;-2.088;2022-10-16T17:03:32;0.40;;;0.40;;
17079;SDS011;8655;57.106;-2.088;2022-10-16T17:06:02;0.40;;;0.30;;
17079;SDS011;8655;57.106;-2.088;2022-10-16T17:08:30;0.30;;;0.30;;
17079;SDS011;8655;57.106;-2.088;2022-10-16T17:10:56;0.30;;;0.30;;
17079;SDS011;8655;57.106;-2.088;2022-10-16T17:13:23;0.73;;;0.40;;
17079;SDS011;8655;57.106;-2.088;2022-10-16T17:15:50;0.30;;;0.30;;
17079;SDS011;8655;57.106;-2.088;2022-10-16T17:18:16;0.10;;;0.10;;
17079;SDS011;8655;57.106;-2.088;2022-10-16T17:20:42;0.40;;;0.40;;